createdAt,value
2023-01-30T00:01:15.867Z,36.67
2023-01-30T00:03:46.943Z,39.00
2023-01-30T00:06:16.106Z,35.37
2023-01-30T00:11:14.534Z,37.90
2023-01-30T00:13:43.616Z,39.30
2023-01-30T00:16:11.999Z,41.23
2023-01-30T00:18:41.005Z,37.40
2023-01-30T00:21:11.562Z,41.00
2023-01-30T00:23:40.224Z,38.87
2023-01-30T00:26:08.645Z,42.97
2023-01-30T00:28:37.297Z,42.93
2023-01-30T00:31:05.892Z,40.47
2023-01-30T00:33:34.473Z,40.57
2023-01-30T00:36:03.746Z,41.80
2023-01-30T00:38:33.395Z,40.87
2023-01-30T00:41:01.617Z,43.57
2023-01-30T00:43:47.271Z,41.50
2023-01-30T00:46:36.116Z,43.83
2023-01-30T00:49:04.318Z,41.97
2023-01-30T00:51:32.688Z,38.30
2023-01-30T00:54:02.313Z,44.40
2023-01-30T00:56:30.558Z,41.80
2023-01-30T00:58:59.004Z,42.00
2023-01-30T01:01:27.373Z,43.00
2023-01-30T01:03:55.621Z,39.63
2023-01-30T01:06:24.099Z,43.97
2023-01-30T01:08:52.404Z,44.77
2023-01-30T01:11:25.173Z,46.63
2023-01-30T01:13:53.956Z,42.87
2023-01-30T01:16:22.365Z,45.37
2023-01-30T01:18:50.880Z,43.70
2023-01-30T01:21:20.366Z,47.20
2023-01-30T01:23:51.808Z,45.80
2023-01-30T01:26:20.190Z,43.80
2023-01-30T01:28:49.917Z,42.87
2023-01-30T01:31:18.769Z,43.80
2023-01-30T01:33:47.050Z,42.53
2023-01-30T01:36:29.430Z,46.07
2023-01-30T01:39:04.352Z,39.43
2023-01-30T01:41:31.803Z,42.73
2023-01-30T01:44:06.285Z,45.03
2023-01-30T01:46:36.505Z,41.53
2023-01-30T01:49:06.929Z,39.73
2023-01-30T01:51:36.530Z,44.93
2023-01-30T01:54:07.006Z,44.00
2023-01-30T01:56:36.591Z,42.67
2023-01-30T01:59:09.065Z,40.43
2023-01-30T02:01:37.452Z,43.37
2023-01-30T02:04:08.999Z,47.83
2023-01-30T02:06:38.432Z,46.20
2023-01-30T02:09:07.821Z,47.03
2023-01-30T02:11:39.163Z,46.63
2023-01-30T02:14:09.291Z,46.80
2023-01-30T02:16:38.138Z,43.23
2023-01-30T02:19:07.981Z,46.30
2023-01-30T02:21:58.868Z,42.90
2023-01-30T02:24:48.148Z,47.73
2023-01-30T02:27:19.207Z,48.43
2023-01-30T02:30:06.197Z,45.17
2023-01-30T02:32:36.928Z,46.00
2023-01-30T02:35:10.822Z,44.70
2023-01-30T02:37:45.829Z,49.77
2023-01-30T02:40:19.781Z,46.00
2023-01-30T02:42:53.674Z,46.07
2023-01-30T02:45:26.432Z,46.43
2023-01-30T02:47:59.027Z,43.77
2023-01-30T02:50:29.397Z,45.03
2023-01-30T02:52:58.614Z,43.40
2023-01-30T02:55:27.813Z,46.17
2023-01-30T02:57:56.490Z,48.57
2023-01-30T03:00:28.699Z,43.90
2023-01-30T03:03:15.746Z,42.00
2023-01-30T03:05:50.643Z,48.87
2023-01-30T03:08:23.722Z,45.03
2023-01-30T03:10:55.913Z,42.80
2023-01-30T03:13:31.687Z,42.77
2023-01-30T03:16:04.629Z,39.33
2023-01-30T03:18:34.298Z,39.30
2023-01-30T03:21:05.848Z,38.03
2023-01-30T03:23:34.071Z,33.17
2023-01-30T03:26:04.017Z,37.93
2023-01-30T03:28:32.425Z,34.93
2023-01-30T03:31:00.837Z,31.70
2023-01-30T03:33:29.096Z,31.30
2023-01-30T03:35:58.768Z,31.03
2023-01-30T03:38:27.036Z,29.17
2023-01-30T03:40:55.288Z,25.23
2023-01-30T03:43:23.533Z,28.83
2023-01-30T03:45:51.857Z,30.07
2023-01-30T03:48:20.106Z,26.30
2023-01-30T03:50:48.326Z,25.93
2023-01-30T03:53:17.934Z,30.10
2023-01-30T03:55:46.409Z,25.70
2023-01-30T03:58:14.851Z,25.33
2023-01-30T04:00:43.454Z,25.03
2023-01-30T04:03:11.667Z,25.27
2023-01-30T04:05:39.986Z,26.50
2023-01-30T04:08:08.193Z,29.33
2023-01-30T04:10:37.831Z,26.73
2023-01-30T04:13:06.232Z,31.43
2023-01-30T04:15:34.526Z,29.63
2023-01-30T04:18:02.710Z,30.00
2023-01-30T04:20:30.946Z,28.43
2023-01-30T04:22:59.235Z,33.90
2023-01-30T04:25:27.582Z,29.47
2023-01-30T04:27:57.187Z,29.80
2023-01-30T04:30:25.455Z,27.57
2023-01-30T04:32:53.728Z,29.07
2023-01-30T04:35:22.116Z,28.17
2023-01-30T04:37:50.404Z,27.30
2023-01-30T04:40:18.956Z,27.87
2023-01-30T04:42:47.331Z,26.33
2023-01-30T04:45:17.357Z,26.37
2023-01-30T04:47:45.913Z,24.37
2023-01-30T04:50:14.187Z,23.63
2023-01-30T04:52:42.839Z,22.53
2023-01-30T04:55:11.330Z,23.40
2023-01-30T04:57:39.609Z,19.50
2023-01-30T05:00:08.754Z,20.23
2023-01-30T05:02:38.521Z,19.67
2023-01-30T05:05:07.180Z,20.13
2023-01-30T05:07:35.445Z,16.20
2023-01-30T05:10:03.859Z,18.20
2023-01-30T05:12:32.098Z,17.30
2023-01-30T05:15:00.494Z,15.67
2023-01-30T05:17:29.904Z,15.07
2023-01-30T05:19:59.665Z,17.30
2023-01-30T05:22:27.939Z,13.47
2023-01-30T05:24:56.291Z,15.20
2023-01-30T05:27:24.589Z,14.90
2023-01-30T05:29:52.955Z,13.73
2023-01-30T05:32:21.647Z,12.47
2023-01-30T05:34:50.174Z,11.30
2023-01-30T05:37:19.912Z,10.40
2023-01-30T05:39:48.223Z,10.73
2023-01-30T05:42:16.845Z,10.50
2023-01-30T05:44:47.090Z,11.47
2023-01-30T05:47:15.314Z,9.17
2023-01-30T05:49:44.933Z,9.77
2023-01-30T05:52:13.213Z,7.47
2023-01-30T05:54:43.128Z,7.77
2023-01-30T05:57:11.703Z,6.97
2023-01-30T05:59:40.018Z,10.10
2023-01-30T06:02:11.058Z,7.77
2023-01-30T06:04:39.468Z,8.67
2023-01-30T06:07:08.251Z,12.77
2023-01-30T06:09:36.459Z,8.03
2023-01-30T06:12:06.261Z,10.67
2023-01-30T06:14:34.465Z,6.53
2023-01-30T06:17:02.747Z,5.60
2023-01-30T06:19:31.117Z,5.87
2023-01-30T06:21:59.346Z,7.13
2023-01-30T06:24:27.600Z,6.07
2023-01-30T06:26:56.138Z,6.10
2023-01-30T06:29:25.831Z,10.40
2023-01-30T06:31:54.080Z,10.97
2023-01-30T06:34:22.467Z,5.33
2023-01-30T06:36:50.750Z,9.00
2023-01-30T06:39:18.976Z,7.23
2023-01-30T06:41:47.250Z,7.53
2023-01-30T06:44:15.553Z,10.03
2023-01-30T06:46:45.239Z,9.20
2023-01-30T06:49:13.431Z,9.20
2023-01-30T06:51:41.689Z,11.37
2023-01-30T06:54:10.246Z,12.97
2023-01-30T06:56:38.530Z,10.53
2023-01-30T06:59:06.781Z,7.97
2023-01-30T07:01:35.082Z,13.03
2023-01-30T07:04:04.743Z,16.30
2023-01-30T07:06:33.194Z,12.30
2023-01-30T07:09:01.434Z,12.77
2023-01-30T07:11:31.099Z,19.03
2023-01-30T07:13:59.677Z,13.93
2023-01-30T07:16:29.871Z,11.43
2023-01-30T07:18:58.645Z,17.37
2023-01-30T07:21:28.343Z,13.70
2023-01-30T07:23:56.613Z,15.00
2023-01-30T07:26:25.417Z,14.50
2023-01-30T07:28:53.795Z,12.03
2023-01-30T07:31:22.348Z,14.43
2023-01-30T07:33:50.646Z,14.67
2023-01-30T07:36:18.888Z,13.93
2023-01-30T07:38:49.907Z,8.67
2023-01-30T07:41:18.645Z,16.43
2023-01-30T07:43:47.163Z,14.27
2023-01-30T07:46:15.389Z,10.37
2023-01-30T07:48:45.641Z,12.80
2023-01-30T07:51:13.899Z,14.47
2023-01-30T07:53:42.183Z,16.60
2023-01-30T07:56:14.442Z,17.13
2023-01-30T07:58:42.774Z,19.30
2023-01-30T08:01:11.393Z,17.57
2023-01-30T08:03:39.602Z,13.27
2023-01-30T08:06:08.204Z,18.77
2023-01-30T08:08:36.674Z,15.87
2023-01-30T08:11:04.902Z,20.70
2023-01-30T08:13:34.641Z,19.33
2023-01-30T08:16:02.937Z,14.13
2023-01-30T08:18:31.479Z,10.73
2023-01-30T08:20:59.819Z,14.37
2023-01-30T08:23:28.118Z,15.53
2023-01-30T08:25:56.636Z,14.57
2023-01-30T08:28:25.324Z,13.50
2023-01-30T08:30:55.374Z,13.17
2023-01-30T08:33:24.408Z,13.80
2023-01-30T08:35:52.872Z,19.47
2023-01-30T08:38:21.118Z,18.13
2023-01-30T08:40:49.310Z,15.60
2023-01-30T08:43:17.506Z,24.17
2023-01-30T08:45:45.729Z,22.30
2023-01-30T08:48:15.272Z,14.07
2023-01-30T08:50:43.581Z,16.00
2023-01-30T08:53:11.943Z,22.43
2023-01-30T08:55:40.435Z,13.13
2023-01-30T08:58:08.736Z,14.30
2023-01-30T09:00:39.788Z,13.87
2023-01-30T09:03:08.842Z,18.87
2023-01-30T09:05:38.530Z,19.47
2023-01-30T09:08:07.173Z,18.30
2023-01-30T09:10:35.483Z,16.33
2023-01-30T09:13:05.374Z,14.00
2023-01-30T09:15:33.788Z,17.60
2023-01-30T09:18:02.504Z,17.93
2023-01-30T09:20:30.747Z,19.10
2023-01-30T09:23:00.568Z,19.00
2023-01-30T09:25:28.902Z,14.47
2023-01-30T09:27:57.214Z,19.33
2023-01-30T09:30:25.649Z,18.37
2023-01-30T09:32:54.008Z,20.37
2023-01-30T09:35:22.400Z,17.70
2023-01-30T09:37:51.253Z,15.17
2023-01-30T09:40:23.868Z,17.00
2023-01-30T09:43:04.558Z,18.47
2023-01-30T09:45:41.284Z,16.40
2023-01-30T09:48:18.318Z,18.33
2023-01-30T09:50:53.242Z,16.03
2023-01-30T09:53:26.258Z,12.50
2023-01-30T09:55:59.249Z,18.50
2023-01-30T09:58:29.299Z,20.60
2023-01-30T10:01:02.545Z,16.13
2023-01-30T10:03:33.697Z,17.83
2023-01-30T10:06:03.228Z,14.83
2023-01-30T10:08:43.587Z,17.97
2023-01-30T10:11:18.905Z,18.80
2023-01-30T10:13:56.588Z,19.57
2023-01-30T10:16:27.329Z,15.53
2023-01-30T10:19:02.577Z,14.90
2023-01-30T10:21:37.067Z,15.57
2023-01-30T10:24:18.127Z,20.83
2023-01-30T10:26:48.206Z,13.47
2023-01-30T10:29:19.865Z,15.87
2023-01-30T10:31:49.462Z,15.53
2023-01-30T10:34:19.578Z,16.50
2023-01-30T10:36:50.943Z,17.80
2023-01-30T10:39:23.305Z,17.77
2023-01-30T10:41:57.169Z,21.10
2023-01-30T10:44:25.571Z,19.47
2023-01-30T10:47:17.641Z,20.10
2023-01-30T10:49:46.895Z,18.47
2023-01-30T10:52:27.107Z,16.43
2023-01-30T10:55:02.277Z,18.10
2023-01-30T10:57:44.793Z,19.90
2023-01-30T11:00:19.346Z,18.77
2023-01-30T11:02:51.935Z,15.03
2023-01-30T11:05:23.387Z,14.70
2023-01-30T11:07:52.018Z,17.53
2023-01-30T11:10:21.336Z,14.73
2023-01-30T11:12:54.476Z,18.67
2023-01-30T11:15:25.409Z,17.50
2023-01-30T11:18:40.448Z,24.93
2023-01-30T11:21:00.328Z,17.77
2023-01-30T11:23:33.316Z,18.77
2023-01-30T11:26:10.833Z,17.97
2023-01-30T11:28:43.004Z,16.50
2023-01-30T11:31:23.330Z,14.60
2023-01-30T11:34:07.585Z,21.57
2023-01-30T11:36:36.923Z,14.97
2023-01-30T11:39:06.092Z,21.20
2023-01-30T11:41:34.415Z,15.17
2023-01-30T11:44:04.889Z,17.63
2023-01-30T11:46:35.393Z,22.97
2023-01-30T11:49:14.125Z,16.67
2023-01-30T11:51:54.638Z,15.37
2023-01-30T11:54:27.511Z,18.60
2023-01-30T11:56:56.859Z,15.00
2023-01-30T11:59:29.317Z,17.03
2023-01-30T12:02:04.719Z,16.37
2023-01-30T12:04:33.095Z,22.10
2023-01-30T12:07:17.875Z,19.23
2023-01-30T12:09:46.464Z,15.97
2023-01-30T12:12:35.114Z,20.47
2023-01-30T12:15:13.851Z,21.40
2023-01-30T12:17:46.079Z,21.10
2023-01-30T12:53:59.383Z,14.30
2023-01-30T12:56:50.824Z,15.87
2023-01-30T12:59:22.497Z,18.33
2023-01-30T13:02:00.528Z,11.90
2023-01-30T13:04:40.047Z,22.90
2023-01-30T13:07:12.293Z,17.37
2023-01-30T13:09:49.977Z,19.43
2023-01-30T13:12:22.000Z,24.57
2023-01-30T13:14:53.993Z,21.63
2023-01-30T13:17:28.159Z,16.67
2023-01-30T13:20:01.162Z,19.43
2023-01-30T13:22:32.412Z,18.17
2023-01-30T13:25:05.733Z,19.20
2023-01-30T13:27:36.585Z,19.43
2023-01-30T13:30:06.813Z,10.83
2023-01-30T13:32:37.443Z,11.00
2023-01-30T13:35:08.414Z,16.20
2023-01-30T13:37:38.876Z,16.20
2023-01-30T13:40:15.274Z,14.27
2023-01-30T13:42:45.729Z,17.73
2023-01-30T13:45:17.102Z,12.77
2023-01-30T13:47:50.400Z,16.60
2023-01-30T13:50:28.705Z,15.17
2023-01-30T13:52:59.405Z,12.83
2023-01-30T13:55:32.716Z,12.53
2023-01-30T13:58:03.789Z,13.57
2023-01-30T14:00:32.826Z,7.40
2023-01-30T14:03:17.849Z,13.63
2023-01-30T14:06:02.220Z,8.50
2023-01-30T14:08:31.561Z,16.53
2023-01-30T14:11:01.359Z,9.60
2023-01-30T14:13:31.317Z,12.87
2023-01-30T14:16:01.459Z,14.50
2023-01-30T14:18:31.156Z,12.40
2023-01-30T14:21:14.334Z,16.73
2023-01-30T14:23:43.710Z,16.43
2023-01-30T14:26:13.353Z,19.60
2023-01-30T14:28:45.962Z,16.47
2023-01-30T14:31:14.998Z,15.77
2023-01-30T14:33:52.868Z,15.93
2023-01-30T14:36:37.707Z,13.03
2023-01-30T14:39:24.720Z,15.67
2023-01-30T14:42:07.863Z,20.70
2023-01-30T14:44:54.438Z,16.87
2023-01-30T14:47:36.086Z,15.77
2023-01-30T14:50:19.754Z,16.20
2023-01-30T14:52:49.580Z,18.50
2023-01-30T14:55:20.550Z,15.03
2023-01-30T14:57:59.039Z,15.20
2023-01-30T15:00:29.320Z,14.13
2023-01-30T15:03:00.576Z,21.23
2023-01-30T15:05:31.039Z,17.57
2023-01-30T15:08:04.670Z,14.67
2023-01-30T15:10:41.565Z,17.67
2023-01-30T15:13:18.802Z,19.70
2023-01-30T15:15:51.237Z,22.03
2023-01-30T15:18:33.625Z,20.90
2023-01-30T15:21:17.124Z,18.73
2023-01-30T15:24:03.119Z,22.70
2023-01-30T15:26:36.045Z,16.30
2023-01-30T15:29:12.327Z,21.20
2023-01-30T15:31:40.761Z,17.23
2023-01-30T15:34:21.209Z,19.77
2023-01-30T15:36:49.685Z,25.10
2023-01-30T15:39:21.417Z,23.57
2023-01-30T15:41:52.675Z,25.10
2023-01-30T15:44:38.965Z,16.87
2023-01-30T15:47:25.327Z,20.37
2023-01-30T15:49:58.930Z,25.23
2023-01-30T15:52:32.486Z,16.83
2023-01-30T15:55:02.275Z,20.70
2023-01-30T15:57:33.541Z,19.60
2023-01-30T16:00:02.059Z,21.57
2023-01-30T16:02:31.998Z,18.77
2023-01-30T16:05:09.072Z,18.13
2023-01-30T16:07:37.265Z,19.73
2023-01-30T16:10:07.701Z,20.70
2023-01-30T16:12:40.717Z,14.13
2023-01-30T16:18:06.321Z,18.23
2023-01-30T16:20:59.032Z,18.00
2023-01-30T16:23:30.906Z,25.50
2023-01-30T16:26:00.293Z,19.00
2023-01-30T16:28:29.474Z,20.43
2023-01-30T16:31:02.124Z,21.03
2023-01-30T16:33:36.022Z,20.33
2023-01-30T16:36:06.880Z,19.53
2023-01-30T16:38:39.550Z,21.80
2023-01-30T16:41:07.984Z,24.87
2023-01-30T16:43:36.241Z,16.60
2023-01-30T16:46:22.492Z,19.73
2023-01-30T16:48:51.432Z,18.63
2023-01-30T16:51:23.162Z,21.87
2023-01-30T16:53:53.673Z,21.90
2023-01-30T16:56:22.295Z,21.03
2023-01-30T16:58:52.196Z,22.60
2023-01-30T17:01:20.634Z,23.90
2023-01-30T17:03:52.842Z,20.10
2023-01-30T17:06:24.511Z,22.67
2023-01-30T17:08:55.184Z,19.70
2023-01-30T17:11:44.058Z,23.60
2023-01-30T17:14:18.318Z,15.10
2023-01-30T17:16:47.220Z,17.23
2023-01-30T17:19:15.925Z,23.80
2023-01-30T17:21:46.858Z,23.67
2023-01-30T17:24:16.115Z,15.67
2023-01-30T17:26:44.507Z,19.30
2023-01-30T17:29:23.626Z,17.43
2023-01-30T17:31:58.163Z,28.13
2023-01-30T17:34:28.594Z,21.27
2023-01-30T17:36:58.456Z,17.93
2023-01-30T17:39:26.829Z,19.07
2023-01-30T17:41:55.048Z,20.23
2023-01-30T17:44:23.271Z,18.67
2023-01-30T17:46:51.496Z,23.13
2023-01-30T17:49:20.730Z,21.50
2023-01-30T17:51:48.957Z,32.73
2023-01-30T17:54:19.970Z,20.87
2023-01-30T17:56:49.157Z,24.03
2023-01-30T17:59:18.316Z,24.37
2023-01-30T18:01:47.200Z,24.50
2023-01-30T18:04:15.539Z,26.53
2023-01-30T18:06:44.968Z,22.00
2023-01-30T18:09:14.225Z,25.90
2023-01-30T18:11:43.844Z,19.80
2023-01-30T18:14:12.115Z,23.60
2023-01-30T18:16:40.594Z,21.53
2023-01-30T18:19:09.661Z,18.13
2023-01-30T18:21:39.925Z,20.43
2023-01-30T18:24:08.665Z,27.93
2023-01-30T18:26:36.937Z,23.73
2023-01-30T18:29:06.547Z,24.90
2023-01-30T18:31:35.027Z,24.40
2023-01-30T18:34:03.597Z,25.33
2023-01-30T18:36:34.417Z,19.20
2023-01-30T18:39:02.910Z,23.53
2023-01-30T18:41:31.750Z,21.80
2023-01-30T18:44:00.875Z,24.13
2023-01-30T18:46:30.836Z,21.77
2023-01-30T18:48:59.640Z,22.30
2023-01-30T18:51:28.973Z,22.33
2023-01-30T18:53:57.259Z,21.03
2023-01-30T18:56:26.587Z,22.13
2023-01-30T18:58:56.439Z,28.07
2023-01-30T19:01:25.360Z,20.03
2023-01-30T19:03:57.127Z,22.93
2023-01-30T19:06:25.652Z,20.37
2023-01-30T19:08:54.004Z,22.53
2023-01-30T19:11:41.199Z,20.13
2023-01-30T19:14:20.286Z,24.37
2023-01-30T19:16:50.225Z,22.33
2023-01-30T19:19:20.696Z,21.07
2023-01-30T19:21:49.870Z,22.63
2023-01-30T19:24:18.904Z,24.13
2023-01-30T19:26:47.403Z,22.10
2023-01-30T19:29:15.918Z,19.87
2023-01-30T19:31:47.091Z,23.40
2023-01-30T19:34:15.441Z,22.67
2023-01-30T19:36:45.070Z,22.90
2023-01-30T19:39:13.306Z,20.40
2023-01-30T19:41:41.624Z,23.63
2023-01-30T19:44:10.137Z,27.53
2023-01-30T19:46:38.521Z,27.00
2023-01-30T19:49:07.668Z,22.47
2023-01-30T19:51:36.575Z,22.37
2023-01-30T19:54:07.345Z,25.40
2023-01-30T19:56:37.413Z,17.20
2023-01-30T19:59:09.144Z,19.53
2023-01-30T20:01:39.963Z,20.10
2023-01-30T20:04:08.495Z,19.80
2023-01-30T20:06:38.343Z,15.70
2023-01-30T20:09:09.825Z,21.83
2023-01-30T20:11:38.593Z,24.33
2023-01-30T20:14:07.504Z,23.13
2023-01-30T20:16:36.361Z,20.33
2023-01-30T20:19:05.639Z,18.33
2023-01-30T20:21:34.299Z,23.67
2023-01-30T20:24:02.828Z,24.00
2023-01-30T20:26:35.113Z,18.63
2023-01-30T20:29:04.031Z,19.93
2023-01-30T20:31:32.553Z,22.47
2023-01-30T20:34:02.301Z,18.70
2023-01-30T20:36:30.833Z,18.83
2023-01-30T20:39:01.973Z,23.70
2023-01-30T20:41:35.037Z,17.27
2023-01-30T20:44:03.701Z,24.17
2023-01-30T20:46:32.671Z,21.07
2023-01-30T20:49:02.343Z,24.43
2023-01-30T20:51:32.286Z,15.53
2023-01-30T20:54:01.791Z,23.30
2023-01-30T20:56:34.497Z,25.43
2023-01-30T20:59:03.440Z,19.60
2023-01-30T21:01:32.265Z,22.27
2023-01-30T21:04:01.013Z,19.30
2023-01-30T21:06:37.106Z,20.50
2023-01-30T21:09:12.495Z,19.00
2023-01-30T21:11:42.408Z,18.57
2023-01-30T21:14:10.705Z,18.50
2023-01-30T21:16:39.648Z,21.93
2023-01-30T21:19:09.661Z,18.17
2023-01-30T21:21:41.804Z,18.53
2023-01-30T21:24:13.109Z,19.80
2023-01-30T21:26:44.578Z,21.53
2023-01-30T21:29:12.870Z,22.87
2023-01-30T21:31:42.296Z,22.27
2023-01-30T21:34:11.133Z,17.00
2023-01-30T21:36:41.018Z,19.33
2023-01-30T21:39:27.213Z,20.63
2023-01-30T21:42:14.436Z,22.00
2023-01-30T21:44:42.993Z,19.47
2023-01-30T21:47:11.255Z,20.80
2023-01-30T21:49:40.712Z,15.50
2023-01-30T21:52:09.003Z,19.67
2023-01-30T21:54:37.730Z,22.93
2023-01-30T21:57:07.411Z,19.07
2023-01-30T21:59:36.432Z,19.27
2023-01-30T22:02:04.897Z,21.33
2023-01-30T22:04:36.570Z,20.93
2023-01-30T22:07:06.846Z,21.13
2023-01-30T22:09:35.387Z,22.40
2023-01-30T22:12:03.733Z,22.80
2023-01-30T22:14:36.376Z,16.23
2023-01-30T22:17:04.836Z,22.33
2023-01-30T22:19:35.573Z,29.50
2023-01-30T22:22:04.598Z,19.27
2023-01-30T22:24:33.226Z,18.37
2023-01-30T22:27:01.493Z,22.00
2023-01-30T22:29:30.912Z,17.30
2023-01-30T22:32:00.675Z,18.30
2023-01-30T22:34:29.060Z,24.00
2023-01-30T22:36:57.857Z,18.50
2023-01-30T22:39:26.436Z,21.20
2023-01-30T22:41:55.056Z,18.73
2023-01-30T22:44:23.287Z,23.33
2023-01-30T22:46:52.860Z,17.20
2023-01-30T22:49:22.626Z,18.93
2023-01-30T22:51:50.938Z,19.97
2023-01-30T22:54:19.600Z,18.57
2023-01-30T22:56:48.936Z,22.80
2023-01-30T22:59:18.122Z,16.50
2023-01-30T23:01:47.958Z,16.70
2023-01-30T23:04:17.690Z,19.13
2023-01-30T23:06:47.530Z,20.83
2023-01-30T23:09:16.552Z,24.40
2023-01-30T23:12:06.134Z,22.33
2023-01-30T23:14:34.576Z,20.03
2023-01-30T23:17:23.431Z,20.27
2023-01-30T23:19:50.788Z,23.97
2023-01-30T23:22:20.353Z,27.30
2023-01-30T23:24:49.023Z,15.53
2023-01-30T23:27:17.275Z,18.87
2023-01-30T23:29:45.638Z,19.10
2023-01-30T23:32:16.661Z,22.90
2023-01-30T23:34:45.234Z,16.30
2023-01-30T23:37:13.410Z,22.57
2023-01-30T23:39:43.063Z,25.60
2023-01-30T23:42:11.250Z,18.77
2023-01-30T23:44:40.119Z,23.00
2023-01-30T23:47:09.208Z,21.60
2023-01-30T23:49:37.861Z,22.70
2023-01-30T23:52:06.644Z,23.23
2023-01-30T23:54:35.182Z,18.23
2023-01-30T23:57:04.815Z,17.23
2023-01-30T23:59:33.180Z,18.27
